YBZA weather

Breeza Airport
New South Wales, Australia

Public forecast

Using degrees Celsius for public forecast. Weather courtesy of forecast.io.

METAR (pilot weather report)

Closest report is Tamworth Airport, 22.0 nm (40.7 km) NE. Retrieved 2019/04/20 14:30 UTC (1 hour ago):

YSTW 201430Z AUTO 10010KT 9999 // NCD 19/11 Q1023 RF00.0/000.0

TAF (pilot weather forecast)

Closest forecast is Tamworth Airport, 22.0 nm (40.7 km) NE. Retrieved 2019/04/20 12:36 UTC (3 hours ago):

TAF TAF YSTW 201051Z 2012/2106 09010KT CAVOK FM201500 12010KT CAVOK FM210000 08007KT CAVOK